Map

Track Data

SID SEASON NUMBER BASIN SUBBASIN NAME ISO_TIME NATURE LAT LON WMO_WIND WMO_PRES WMO_AGENCY TRACK_TYPE DIST2LAND LANDFALL IFLAG USA_AGENCY USA_ATCF_ID USA_LAT USA_LON USA_RECORD USA_STATUS USA_WIND USA_PRES USA_SSHS USA_R34_NE USA_R34_SE USA_R34_SW USA_R34_NW USA_R50_NE USA_R50_SE USA_R50_SW USA_R50_NW USA_R64_NE USA_R64_SE USA_R64_SW USA_R64_NW USA_POCI USA_ROCI USA_RMW USA_EYE TOKYO_LAT TOKYO_LON TOKYO_GRADE TOKYO_WIND TOKYO_PRES TOKYO_R50_DIR TOKYO_R50_LONG TOKYO_R50_SHORT TOKYO_R30_DIR TOKYO_R30_LONG TOKYO_R30_SHORT TOKYO_LAND CMA_LAT CMA_LON CMA_CAT CMA_WIND CMA_PRES HKO_LAT HKO_LON HKO_CAT HKO_WIND HKO_PRES NEWDELHI_LAT NEWDELHI_LON NEWDELHI_GRADE NEWDELHI_WIND NEWDELHI_PRES NEWDELHI_CI NEWDELHI_DP NEWDELHI_POCI REUNION_LAT REUNION_LON REUNION_TYPE REUNION_WIND REUNION_PRES REUNION_TNUM REUNION_CI REUNION_RMW REUNION_R34_NE REUNION_R34_SE REUNION_R34_SW REUNION_R34_NW REUNION_R50_NE REUNION_R50_SE REUNION_R50_SW REUNION_R50_NW REUNION_R64_NE REUNION_R64_SE REUNION_R64_SW REUNION_R64_NW BOM_LAT BOM_LON BOM_TYPE BOM_WIND BOM_PRES BOM_TNUM BOM_CI BOM_RMW BOM_R34_NE BOM_R34_SE BOM_R34_SW BOM_R34_NW BOM_R50_NE BOM_R50_SE BOM_R50_SW BOM_R50_NW BOM_R64_NE BOM_R64_SE BOM_R64_SW BOM_R64_NW BOM_ROCI BOM_POCI BOM_EYE BOM_POS_METHOD BOM_PRES_METHOD NADI_LAT NADI_LON NADI_CAT NADI_WIND NADI_PRES WELLINGTON_LAT WELLINGTON_LON WELLINGTON_WIND WELLINGTON_PRES DS824_LAT DS824_LON DS824_STAGE DS824_WIND DS824_PRES TD9636_LAT TD9636_LON TD9636_STAGE TD9636_WIND TD9636_PRES TD9635_LAT TD9635_LON TD9635_WIND TD9635_PRES TD9635_ROCI NEUMANN_LAT NEUMANN_LON NEUMANN_CLASS NEUMANN_WIND NEUMANN_PRES MLC_LAT MLC_LON MLC_CLASS MLC_WIND MLC_PRES USA_GUST BOM_GUST BOM_GUST_PER REUNION_GUST REUNION_GUST_PER USA_SEAHGT USA_SEARAD_NE USA_SEARAD_SE USA_SEARAD_SW USA_SEARAD_NW STORM_SPEED STORM_DIR
1973345S10100 1974 132 SI WA CECILY 1973-12-11 00:00:00 TS -9.89981 100.100 main 660 660 ______P__O__O_ -1 -9.89944 100.101 -9.90000 100.100 TC 20 1005 -9.90000 100.100 TC 20 1005 2 0
1973345S10100 1974 132 SI WA CECILY 1973-12-11 00:01:00 TS -9.90037 100.100 20 1005 bom main 660 660 ______O__O__O_ -1 -9.90000 100.100 20 20 1005 1.00000 -9.90000 100.100 TC 20 1005 -9.90000 100.100 TC 20 1005 2 206
1973345S10100 1974 132 SI WA CECILY 1973-12-11 03:00:00 TS -10.0000 100.040 20 1005 bom main 675 675 ______O__P__P_ -1 -10.0000 100.000 20 20 1005 1.00000 -9.96765 100.072 TC 22 1004 -9.96765 100.072 TC 22 1004 2 205
1973345S10100 1974 132 SI WA CECILY 1973-12-11 06:00:00 TS -10.1000 100.000 20 1003 bom main 681 681 ______O__O__O_ -1 -10.1000 100.000 20 20 1003 1.00000 -10.1000 100.000 TC 25 1003 -10.1000 100.000 TC 25 1003 2 214
1973345S10100 1974 132 SI WA CECILY 1973-12-11 09:00:00 TS -10.2000 99.9050 25 1001 bom main 696 696 ______O__P__P_ -1 -10.2000 99.9000 20 25 1001 1.50000 -10.2000 99.9075 TC 25 1002 -10.2000 99.9075 TC 25 1002 3 225
1973345S10100 1974 132 SI WA CECILY 1973-12-11 12:00:00 TS -10.3000 99.8000 25 1002 bom main 711 711 ______O__O__O_ -1 -10.3000 99.8000 20 25 1002 1.50000 -10.3000 99.8000 TC 25 1002 -10.3000 99.8000 TC 25 1002 3 225
1973345S10100 1974 132 SI WA CECILY 1973-12-11 15:00:00 TS -10.4050 99.6950 25 1003 bom main 727 727 ______O__P__P_ -1 -10.4000 99.7000 20 25 1003 1.50000 -10.4075 99.6925 TC 22 1003 -10.4075 99.6925 TC 22 1003 3 225
1973345S10100 1974 132 SI WA CECILY 1973-12-11 18:00:00 TS -10.5000 99.6000 25 1004 bom main 742 742 ______O__O__O_ -1 -10.5000 99.6000 20 25 1004 1.50000 -10.5000 99.6000 TC 20 1004 -10.5000 99.6000 TC 20 1004 2 226
1973345S10100 1974 132 SI WA CECILY 1973-12-11 21:00:00 TS -10.5617 99.5283 25 1003 bom main 757 757 ______O__P__P_ -1 -10.6000 99.5000 20 25 1003 1.50000 -10.5714 99.5286 TC 22 1003 -10.5714 99.5286 TC 22 1003 1 223
1973345S10100 1974 132 SI WA CECILY 1973-12-12 00:00:00 TS -10.5999 99.5001 main 757 757 ______P__O__O_ -1 -10.5998 99.5002 20 25 1003 -10.6000 99.5000 TC 25 1003 -10.6000 99.5000 TC 25 1003 1 226
1973345S10100 1974 132 SI WA CECILY 1973-12-12 00:01:00 TS -10.6004 99.4998 25 1003 bom main 757 757 ______O__O__O_ -1 -10.6000 99.5000 20 25 1003 1.50000 -10.6000 99.5000 TC 25 1003 -10.6000 99.5000 TC 25 1003 3 214
1973345S10100 1974 132 SI WA CECILY 1973-12-12 03:00:00 TS -10.7233 99.4234 25 1003 bom main 773 773 ______O__P__P_ -1 -10.7000 99.4000 20 25 1003 2.00000 -10.7015 99.4555 TC 25 1002 -10.7015 99.4555 TC 25 1002 3 197
1973345S10100 1974 132 SI WA CECILY 1973-12-12 06:00:00 TS -10.9000 99.4000 25 1002 bom main 785 783 ______O__O__O_ -1 -10.9000 99.4000 20 25 1002 2.00000 -10.9000 99.4000 TC 25 1002 -10.9000 99.4000 TC 25 1002 3 174
1973345S10100 1974 132 SI WA CECILY 1973-12-12 09:00:00 TS -11.0383 99.4567 25 1000 bom main 783 783 ______O__P__P_ -1 -11.0000 99.5000 20 25 1000 2.00000 -11.0576 99.4349 TC 30 1000 -11.0576 99.4349 TC 30 1000 3 163
1973345S10100 1974 132 SI WA CECILY 1973-12-12 12:00:00 TS -11.2000 99.5000 25 998 bom main 797 795 ______O__O__O_ -1 -11.2000 99.5000 20 25 998 2.00000 -11.2000 99.5000 TC 35 998 -11.2000 99.5000 TC 35 998 3 159
1973345S10100 1974 132 SI WA CECILY 1973-12-12 15:00:00 TS -11.3050 99.5617 30 997 bom main 795 795 ______O__P__P_ -1 -11.3000 99.6000 20 30 997 2.50000 -11.3075 99.5425 TC 35 997 -11.3075 99.5425 TC 35 997 2 153
1973345S10100 1974 132 SI WA CECILY 1973-12-12 18:00:00 TS -11.4000 99.6000 30 996 bom main 802 794 ______O__O__O_ -1 -11.4000 99.6000 20 30 996 2.50000 -11.4000 99.6000 TC 35 996 -11.4000 99.6000 TC 35 996 2 141
1973345S10100 1974 132 SI WA CECILY 1973-12-12 21:00:00 TS -11.4950 99.7200 30 995 bom main 801 793 ______O__P__P_ -1 -11.5000 99.7000 20 30 995 2.50000 -11.5321 99.7267 TC 37 995 -11.5321 99.7267 TC 37 995 3 135
1973345S10100 1974 132 SI WA CECILY 1973-12-13 00:00:00 TS -11.5998 99.8000 main 800 800 ______P__O__O_ -1 -11.5994 99.8000 20 34 994 -11.6000 99.8000 TC 40 994 -11.6000 99.8000 TC 40 994 3 143
1973345S10100 1974 132 SI WA CECILY 1973-12-13 00:01:00 TS -11.6004 99.7999 35 994 bom main 800 800 ______O__O__O_ -1 -11.6000 99.8000 30 35 994 3.00000 -11.6000 99.8000 TC 40 994 -11.6000 99.8000 TC 40 994 3 220
1973345S10100 1974 132 SI WA CECILY 1973-12-13 03:00:00 TS -11.7133 99.7016 35 994 bom main 816 816 ______O__P__P_ -1 -11.7000 99.7000 30 35 994 3.00000 -11.6855 99.7092 TC 42 993 -11.6855 99.7092 TC 42 993 4 224
1973345S10100 1974 132 SI WA CECILY 1973-12-13 06:00:00 TS -11.9000 99.5000 40 992 bom main 847 847 ______O__O__O_ -1 -11.9000 99.5000 30 40 992 3.00000 -11.9000 99.5000 TC 45 992 -11.9000 99.5000 TC 45 992 6 221
1973345S10100 1974 132 SI WA CECILY 1973-12-13 09:00:00 TS -12.1699 99.2965 45 990 bom main 885 885 ______O__P__P_ -1 -12.2000 99.3000 30 45 990 3.00000 -12.1550 99.2948 TC 47 990 -12.1550 99.2948 TC 47 990 8 219
1973345S10100 1974 132 SI WA CECILY 1973-12-13 12:00:00 TS -12.5000 99.0000 45 988 bom main 932 932 ______O__O__O_ -1 -12.5000 99.0000 30 45 988 3.00000 -12.5000 99.0000 TC 50 988 -12.5000 99.0000 TC 50 988 10 223
1973345S10100 1974 132 SI WA CECILY 1973-12-13 15:00:00 TS -12.9033 98.5965 50 986 bom main 994 994 ______O__P__P_ -1 -12.9000 98.6000 30 50 986 3.50000 -12.9050 98.5948 TC 52 986 -12.9050 98.5948 TC 52 986 13 224
1973345S10100 1974 132 SI WA CECILY 1973-12-13 18:00:00 TS -13.4000 98.1000 50 984 bom main 1072 1072 ______O__O__O_ -1 -13.4000 98.1000 30 50 984 3.50000 -13.4000 98.1000 TC 55 984 -13.4000 98.1000 TC 55 984 15 222
1973345S10100 1974 132 SI WA CECILY 1973-12-13 21:00:00 TS -14.0100 97.5669 55 982 bom main 1158 1158 ______O__P__P_ -1 -14.0000 97.6000 30 55 982 4.00000 -14.1765 97.3854 TC 57 982 -14.1765 97.3854 TC 57 982 16 222
1973345S10100 1974 132 SI WA CECILY 1973-12-14 00:00:00 TS -14.5991 97.0011 main 1251 1251 ______P__O__O_ -1 -14.5972 97.0032 30 55 981 -14.6000 97.0000 TC 60 981 -14.6000 97.0000 TC 60 981 16 223
1973345S10100 1974 132 SI WA CECILY 1973-12-14 00:01:00 TS -14.6017 96.9981 55 981 bom main 1251 1251 ______O__O__O_ -1 -14.6000 97.0000 30 55 981 4.00000 -14.6000 97.0000 TC 60 981 -14.6000 97.0000 TC 60 981 12 231
1973345S10100 1974 132 SI WA CECILY 1973-12-14 03:00:00 TS -14.9866 96.5081 55 981 bom main 1321 1321 ______O__P__P_ -1 -15.0000 96.5000 30 55 981 4.00000 -14.8318 96.6800 TC 60 980 -14.8318 96.6800 TC 60 980 11 231
1973345S10100 1974 132 SI WA CECILY 1973-12-14 06:00:00 TS -15.3000 96.1000 55 980 bom main 1375 1375 ______O__O__O_ -1 -15.3000 96.1000 30 55 980 4.00000 -15.3000 96.1000 TC 60 980 -15.3000 96.1000 TC 60 980 10 225
1973345S10100 1974 132 SI WA CECILY 1973-12-14 09:00:00 TS -15.6949 95.7799 60 978 bom main 1429 1429 ______O__P__P_ -1 -15.7000 95.8000 30 60 978 4.00000 -15.6925 95.7696 TC 62 978 -15.6925 95.7696 TC 62 978 10 216
1973345S10100 1974 132 SI WA CECILY 1973-12-14 12:00:00 TS -16.1000 95.5000 60 976 bom main 1483 1483 ______O__O__O_ -1 -16.1000 95.5000 30 60 976 4.00000 -16.1000 95.5000 TC 65 976 -16.1000 95.5000 TC 65 976 10 214
1973345S10100 1974 132 SI WA CECILY 1973-12-14 15:00:00 TS -16.5000 95.2183 65 974 bom main 1537 1537 ______O__P__P_ -1 -16.5000 95.2000 40 65 974 4.50000 -16.5000 95.2275 TC 65 975 -16.5000 95.2275 TC 67 975 9 211
1973345S10100 1974 132 SI WA CECILY 1973-12-14 18:00:00 TS -16.9000 95.0000 65 974 bom main 1584 1584 ______O__O__O_ -1 -16.9000 95.0000 40 65 974 4.50000 -16.9000 95.0000 TC 65 974 -16.9000 95.0000 TC 70 974 9 205
1973345S10100 1974 132 SI WA CECILY 1973-12-14 21:00:00 TS -17.3050 94.8232 70 974 bom main 1630 1630 ______O__P__P_ -1 -17.3000 94.8000 40 70 974 4.50000 -17.4282 94.7913 TC 67 973 -17.4282 94.7913 TC 70 973 9 200
1973345S10100 1974 132 SI WA CECILY 1973-12-15 00:00:00 TS -17.6993 94.7002 main 1669 1669 ______P__O__O_ -1 -17.6980 94.7005 40 70 973 -17.7000 94.7000 TC 70 973 -17.7000 94.7000 TC 70 973 8 196
1973345S10100 1974 132 SI WA CECILY 1973-12-15 00:01:00 TS -17.7014 94.6995 70 973 bom main 1669 1669 ______O__O__O_ -1 -17.7000 94.7000 40 70 973 4.50000 4 -17.7000 94.7000 TC 70 973 -17.7000 94.7000 TC 70 973 7 200
1973345S10100 1974 132 SI WA CECILY 1973-12-15 03:00:00 TS -18.0383 94.5716 70 973 bom main 1701 1701 ______O__P__P_ -1 -18.0000 94.6000 40 70 973 4.50000 -17.9368 94.6040 TC 70 973 -17.9368 94.6040 TC 70 973 8 202
1973345S10100 1974 132 SI WA CECILY 1973-12-15 06:00:00 TS -18.4000 94.4000 70 973 bom main 1748 1748 ______O__O__O_ -1 -18.4000 94.4000 40 70 973 4.50000 -18.4000 94.4000 TC 70 973 -18.4000 94.4000 TC 70 973 8 207
1973345S10100 1974 132 SI WA CECILY 1973-12-15 09:00:00 TS -18.7284 94.1950 70 975 bom main 1787 1787 ______O__P__P_ -1 -18.7000 94.2000 40 70 975 4.50000 -18.7427 94.1925 TC 65 976 -18.7427 94.1925 TC 65 976 8 208
1973345S10100 1974 132 SI WA CECILY 1973-12-15 12:00:00 TS -19.1000 94.0000 65 980 bom main 1834 1834 ______O__O__O_ -1 -19.1000 94.0000 40 65 980 4.50000 -19.1000 94.0000 TC 60 980 -19.1000 94.0000 TC 60 980 8 201
1973345S10100 1974 132 SI WA CECILY 1973-12-15 15:00:00 TS -19.4900 93.8849 60 984 bom main 1874 1874 ______O__P__P_ -1 -19.5000 93.9000 30 60 984 4.00000 -19.4850 93.8774 TC 57 982 -19.4850 93.8774 TC 57 982 8 193
1973345S10100 1974 132 SI WA CECILY 1973-12-15 18:00:00 TS -19.9000 93.8000 55 985 bom main 1914 1914 ______O__O__O_ -1 -19.9000 93.8000 30 55 985 4.00000 -19.9000 93.8000 TC 55 985 -19.9000 93.8000 TC 55 985 9 191
1973345S10100 1974 132 SI WA CECILY 1973-12-15 21:00:00 TS -20.3283 93.7134 55 986 bom main 1955 1955 ______O__P__P_ -1 -20.3000 93.7000 30 55 986 4.00000 -20.4888 93.7286 TC 52 986 -20.4888 93.7286 TC 52 986 9 186
1973345S10100 1974 132 SI WA CECILY 1973-12-16 00:00:00 TS -20.7991 93.7000 main 1997 1997 ______P__O__O_ -1 -20.7974 93.6999 30 50 987 -20.8000 93.7000 TC 50 988 -20.8000 93.7000 TC 50 988 9 0
1973345S10100 1974 132 SI WA CECILY 1973-12-16 00:01:00 TS -20.8017 93.7000 50 988 bom main 1997 1997 ______O__O__O_ -1 -20.8000 93.7000 30 50 988 3.50000 -20.8000 93.7000 TC 50 988 -20.8000 93.7000 TC 50 988 9 176
1973345S10100 1974 132 SI WA CECILY 1973-12-16 03:00:00 TS -21.2333 93.7367 50 989 bom main 2032 2015 ______O__P__P_ -1 -21.2000 93.7000 30 50 989 3.50000 -21.1044 93.7517 TC 50 988 -21.1044 93.7517 TC 50 988 9 168
1973345S10100 1974 132 SI WA CECILY 1973-12-16 06:00:00 TS -21.7000 93.9000 50 988 bom main 2015 1985 ______O__O__O_ -1 -21.7000 93.9000 30 50 988 3.50000 -21.7000 93.9000 TC 50 988 -21.7000 93.9000 TC 50 988 10 158
1973345S10100 1974 132 SI WA CECILY 1973-12-16 09:00:00 TS -22.1334 94.1183 50 989 bom main 1985 1945 ______O__P__P_ -1 -22.1000 94.1000 30 50 989 3.50000 -22.1502 94.1275 TC 45 990 -22.1502 94.1275 TC 45 990 10 153
1973345S10100 1974 132 SI WA CECILY 1973-12-16 12:00:00 TS -22.6000 94.4000 50 993 bom main 1945 1907 ______O__O__O_ -1 -22.6000 94.4000 30 50 993 3.50000 -22.6000 94.4000 TC 40 993 -22.6000 94.4000 TC 40 993 10 150
1973345S10100 1974 132 SI WA CECILY 1973-12-16 15:00:00 TS -23.0333 94.6717 45 994 bom main 1907 1876 ______O__P__P_ -1 -23.0000 94.7000 30 45 994 3.00000 -23.0500 94.6576 TC 40 993 -23.0500 94.6576 TC 40 993 10 153
1973345S10100 1974 132 SI WA CECILY 1973-12-16 18:00:00 TS -23.5000 94.9000 40 993 bom main 1876 1847 ______O__O__O_ -1 -23.5000 94.9000 30 40 993 3.00000 -23.5000 94.9000 TC 40 993 -23.5000 94.9000 TC 40 993 10 156
1973345S10100 1974 132 SI WA CECILY 1973-12-16 21:00:00 TS -23.9433 95.1150 40 992 bom main 1847 1817 ______O__P__P_ -1 -23.9000 95.1000 30 40 992 3.00000 -24.0942 95.1692 TC 40 993 -24.0942 95.1692 TC 40 993 10 158
1973345S10100 1974 132 SI WA CECILY 1973-12-17 00:00:00 TS -24.3991 95.2997 main 1817 1817 ______P__O__O_ -1 -24.3974 95.2992 30 40 993 -24.4000 95.3000 TC 40 994 -24.4000 95.3000 TC 40 994 10 160
1973345S10100 1974 132 SI WA CECILY 1973-12-17 00:01:00 TS -24.4015 95.3006 40 994 bom main 1817 1800 ______O__O__O_ -1 -24.4000 95.3000 30 40 994 3.00000 -24.4000 95.3000 TC 40 994 -24.4000 95.3000 TC 40 994 8 164
1973345S10100 1974 132 SI WA CECILY 1973-12-17 03:00:00 TS -24.7916 95.4201 40 995 bom main 1800 1785 ______O__P__P_ -1 -24.8000 95.4000 30 40 995 3.00000 -24.6528 95.3781 TC 40 994 -24.6528 95.3781 TC 40 994 7 165
1973345S10100 1974 132 SI WA CECILY 1973-12-17 06:00:00 TS -25.1000 95.5000 40 994 bom main 1785 1782 ______O__O__O_ -1 -25.1000 95.5000 30 40 994 3.00000 -25.1000 95.5000 TC 40 994 -25.1000 95.5000 TC 40 994 5 171
1973345S10100 1974 132 SI WA CECILY 1973-12-17 09:00:00 TS -25.3150 95.5101 40 994 bom main 1782 1779 ______O__P__P_ -1 -25.3000 95.5000 30 40 994 3.00000 -25.3227 95.5152 TC 35 996 -25.3227 95.5152 TC 35 996 4 0
1973345S10100 1974 132 SI WA CECILY 1973-12-17 12:00:00 TS -25.5000 95.5000 40 999 bom main 1779 1777 ______O__O__O_ -1 -25.5000 95.5000 30 40 999 3.00000 -25.5000 95.5000 TC 30 999 -25.5000 95.5000 TC 30 999 4 0
1973345S10100 1974 132 SI WA CECILY 1973-12-17 15:00:00 TS -25.6950 95.5000 30 1003 bom main 1777 1775 ______O__P__P_ -1 -25.7000 95.5000 20 30 1003 2.50000 -25.6925 95.5000 TC 27 1000 -25.6925 95.5000 TC 27 1000 4 0
1973345S10100 1974 132 SI WA CECILY 1973-12-17 18:00:00 TS -25.9000 95.5000 25 1002 bom main 1775 1773 ______O__O__O_ -1 -25.9000 95.5000 20 25 1002 2.00000 -25.9000 95.5000 TC 25 1002 -25.9000 95.5000 TC 25 1002 4 178
1973345S10100 1974 132 SI WA CECILY 1973-12-17 21:00:00 TS -26.1133 95.5149 25 1002 bom main 1773 1770 ______O__P__P_ -1 -26.1000 95.5000 20 25 1002 2.00000 -26.2247 95.5000 TC 22 1003 -26.2247 95.5000 TC 22 1003 5 0
1973345S10100 1974 132 SI WA CECILY 1973-12-18 00:00:00 TS -26.3993 95.5001 main 1770 1770 ______P__O__O_ -1 -26.3980 95.5003 20 25 1004 -26.4000 95.5000 TC 20 1005 -26.4000 95.5000 TC 20 1005 6 182
1973345S10100 1974 132 SI WA CECILY 1973-12-18 00:01:00 TS -26.4012 95.4998 25 1005 bom main 1770 1769 ______O__O__O_ -1 -26.4000 95.5000 20 25 1005 2.00000 -26.4000 95.5000 TC 20 1005 -26.4000 95.5000 TC 20 1005 8 193
1973345S10100 1974 132 SI WA CECILY 1973-12-18 03:00:00 TS -26.7850 95.3966 25 1005 bom main 1778 1777 ______O__P__P_ -1 -26.8000 95.4000 20 25 1005 2.00000 -26.6706 95.4146 TC 22 1003 -26.6706 95.4146 TC 22 1003 8 199
1973345S10100 1974 132 SI WA CECILY 1973-12-18 06:00:00 TS -27.2000 95.2000 25 1002 bom main 1796 1796 ______O__O__O_ -1 -27.2000 95.2000 20 25 1002 1.50000 -27.2000 95.2000 TC 25 1002 -27.2000 95.2000 TC 25 1002 9 205
1973345S10100 1974 132 SI WA CECILY 1973-12-18 09:00:00 TS -27.6146 94.9548 25 1003 bom main 1816 1816 ______O__P__P_ -1 -27.6000 94.9000 20 25 1003 1.50000 -27.6221 94.9822 TC 22 1003 -27.6221 94.9822 TC 22 1003 10 214
1973345S10100 1974 132 SI WA CECILY 1973-12-18 12:00:00 TS -28.0000 94.6000 25 1004 bom main 1856 1856 ______O__O__O_ -1 -28.0000 94.6000 20 25 1004 1.50000 -28.0000 94.6000 TC 20 1004 -28.0000 94.6000 TC 20 1004 11 232
1973345S10100 1974 132 SI WA CECILY 1973-12-18 15:00:00 TS -28.2917 93.9883 25 1005 bom main 1916 1916 ______O__P__P_ -1 -28.3000 94.0000 20 25 1005 1.50000 -28.2875 93.9825 TC 20 1004 -28.2875 93.9825 TC 20 1004 13 248
1973345S10100 1974 132 SI WA CECILY 1973-12-18 18:00:00 TS -28.5000 93.2000 25 1004 bom main 1995 1995 ______O__O__O_ -1 -28.5000 93.2000 20 25 1004 1.50000 -28.5000 93.2000 TC 20 1004 -28.5000 93.2000 TC 20 1004 15 255
1973345S10100 1974 132 SI WA CECILY 1973-12-18 21:00:00 TS -28.6756 92.3735 25 1004 bom main 2073 2073 ______O__P__P_ -1 -28.7000 92.4000 20 25 1004 1.50000 -28.7104 92.0942 TC 20 1004 -28.7104 92.0942 TC 20 1004 15 259
1973345S10100 1974 132 SI WA CECILY 1973-12-19 00:00:00 TS -28.7999 91.5017 main 2161 2161 ______P__O__O_ -1 -28.7996 91.5051 20 25 1004 -28.8000 91.5000 TC 20 1005 -28.8000 91.5000 TC 20 1005 15 261
1973345S10100 1974 132 SI WA CECILY 1973-12-19 00:01:00 TS -28.8005 91.4968 25 1005 bom main 2161 ______O__O__O_ -1 -28.8000 91.5000 20 25 1005 1.50000 -28.8000 91.5000 TC 20 1005 -28.8000 91.5000 TC 20 1005 16 0

About IBTrACS Database

This database is a web-friendly format of International Best Track Archive for Climate Stewardship (IBTrACS), a global best track data archive curated by NOAA dating back to 1842.

Updated: 2021-12-03